This is the latest recevied weather packets stored in our database for station/object K1BWE-1. If no packets are shown the sender has not sent any weather packets the latest 10 day(s).
| Time | Temp. | Humidity | Pressure | Rain* | Wind** | Luminosity | Snow |
|---|---|---|---|---|---|---|---|
| 1777438033 | 18.33° C | 20% | 1017.4 hPa | 0 mm | - | 0 W/m² | - |
| 1777437730 | 18.33° C | 20% | 1017.7 hPa | 0 mm | - | 0 W/m² | - |
| 1777437426 | 18.33° C | 21% | 1017.5 hPa | 0 mm | - | 0 W/m² | - |
| 1777437123 | 18.89° C | 20% | 1017.3 hPa | 0 mm | - | 0 W/m² | - |
| 1777436820 | 18.89° C | 20% | 1017.6 hPa | 0 mm | - | 0 W/m² | - |
| 1777436516 | 18.89° C | 20% | 1017.4 hPa | 0 mm | - | 0 W/m² | - |
| 1777436213 | 18.89° C | 20% | 1017.4 hPa | 0 mm | - | 0 W/m² | - |
| 1777435909 | 19.44° C | 20% | 1017.1 hPa | 0 mm | - | 0 W/m² | - |
| 1777435605 | 18.89° C | 20% | 1017.4 hPa | 0 mm | - | 0 W/m² | - |
| 1777434999 | 19.44° C | 20% | 1017.4 hPa | 0 mm | - | 0 W/m² | - |
| 1777434696 | 19.44° C | 20% | 1017.4 hPa | 0 mm | - | 0 W/m² | - |
| 1777434390 | 20° C | 19% | 1017.5 hPa | 0 mm | - | 0 W/m² | - |
| 1777431969 | 21.67° C | 17% | 1017.1 hPa | 0 mm | - | 0 W/m² | - |
| 1777429841 | 22.22° C | 18% | 1016.1 hPa | 0 mm | - | 0 W/m² | - |
| 1777424676 | 25° C | 14% | 1016.1 hPa | 0 mm | - | 58 W/m² | - |
| 1777422850 | 25.56° C | 13% | 1016.1 hPa | 0 mm | - | 101 W/m² | - |
| 1777422546 | 25.56° C | 13% | 1016.2 hPa | 0 mm | - | 97 W/m² | - |
| 1777422242 | 26.11° C | 13% | 1016.1 hPa | 0 mm | - | 154 W/m² | - |
| 1777421941 | 26.11° C | 15% | 1016 hPa | 0 mm | - | 114 W/m² | - |
| 1777421331 | 26.67° C | 13% | 1015.9 hPa | 0 mm | - | 225 W/m² | - |
* Rain latest hour (hover to see other rain measurements)
** Current wind speed in m/s (hover to see current wind gust speed)